.
Local / Fort Wayne - NE Ind.

U N D E R   C O N S T R U C T I O N

Local Weather
Fort Wayne – NE Indiana

Northern Indiana (IWX) Radar

Latest IWX NEXRAD
Base Reflectivity



Latest IWX NEXRAD
Base Velocity

Indiana-Ohio Visible Satellite

For infrared and water vapor imagery, see Great Lakes - Midwest.

Current Conditions

Recent report from the Fort Wayne International Airport

Sep 21, 2021 - 07:30 PM EDT / 2021.09.21 2330 UTC


The skies are overcast and there is light rain. The temperature is 70.0 F (21.1 C) and the dew point is 66.0 F (18.9 C), giving a relative humidity of 87%. The barometric pressure is 30.01 in. Hg (1016 hPa). The wind is from the NW (320 degrees) at 7 MPH (6 KT), and the visibility is 10 mile(s).

KFWA 212330Z 32006KT 10SM -RA BKN014 BKN022 OVC044 21/19 A3001 RMK AO2 RAB04 P0000 T02110189

Local Weather — Contents

Local Weather — Links

CoCoRaHS
IN-AL-99
A2 Web Hosting
Creative Commons License
GoDaddy
search engine by freefind advanced

loaded 2021-09-21 19:47:46 • last modified 2017-02-11 13:27:36
Privacy PolicyDisclaimer
• wx.awcolley.com is powered by PmWiki v.2002016 •
• all content (unless otherwise noted) © 2021 A W Colley